Time;durP1;ratioP1;P1;durP2;ratioP2;P2;SDS_P1;SDS_P2;PMS_P1;PMS_P2;Temp;Humidity;BMP_temperature;BMP_pressure;BME280_temperature;BME280_humidity;BME280_pressure;Samples;Min_cycle;Max_cycle;Signal;HPM_P1;HPM_P2
2023/08/13 00:01:55;;;;;;;15.65;2.50;;;16.40;99.90;;;;;;5079793;27;20199;-68
2023/08/13 00:04:22;;;;;;;9.85;2.22;;;16.30;99.90;;;;;;5073199;28;20216;-68
2023/08/13 00:06:48;;;;;;;6.30;2.30;;;16.40;99.90;;;;;;5085336;28;20670;-68
2023/08/13 00:09:15;;;;;;;8.30;2.50;;;16.40;99.90;;;;;;5059136;28;20769;-69
2023/08/13 00:11:43;;;;;;;4.60;2.60;;;16.40;99.90;;;;;;5081908;28;20203;-69
2023/08/13 00:14:10;;;;;;;5.82;2.50;;;16.40;99.90;;;;;;5070980;28;20446;-68
2023/08/13 00:16:37;;;;;;;6.07;2.50;;;16.40;99.90;;;;;;5079385;28;20211;-68
2023/08/13 00:19:04;;;;;;;6.90;2.80;;;16.40;99.90;;;;;;5072453;28;20207;-68
2023/08/13 00:21:31;;;;;;;8.95;2.90;;;16.40;99.90;;;;;;5080201;27;20775;-68
2023/08/13 00:23:58;;;;;;;6.60;2.53;;;16.40;99.90;;;;;;5053862;28;20228;-68
2023/08/13 00:26:25;;;;;;;6.60;2.60;;;16.40;99.90;;;;;;5078654;28;20776;-68
2023/08/13 00:28:53;;;;;;;9.70;2.65;;;16.30;99.90;;;;;;5068197;28;20207;-68
2023/08/13 00:31:19;;;;;;;10.70;2.67;;;16.40;99.90;;;;;;5068338;28;20444;-68
2023/08/13 00:33:46;;;;;;;9.88;2.90;;;16.40;99.90;;;;;;5083995;28;20199;-68
2023/08/13 00:36:13;;;;;;;5.35;2.72;;;16.30;99.90;;;;;;5068571;28;20191;-68
2023/08/13 00:38:40;;;;;;;13.82;2.90;;;16.40;99.90;;;;;;5082163;28;20743;-68
2023/08/13 00:41:07;;;;;;;7.20;2.38;;;16.30;99.90;;;;;;5055787;28;20231;-69
2023/08/13 00:43:34;;;;;;;9.30;2.65;;;16.40;99.90;;;;;;5066159;28;20224;-68
2023/08/13 00:46:04;;;;;;;7.22;2.55;;;16.40;99.90;;;;;;5071546;28;20802;-68
2023/08/13 00:48:31;;;;;;;7.50;2.50;;;16.40;99.90;;;;;;5072252;28;20209;-68
2023/08/13 00:50:58;;;;;;;9.05;2.25;;;16.50;99.90;;;;;;5069140;28;20200;-68
2023/08/13 00:53:26;;;;;;;5.38;2.67;;;16.50;99.90;;;;;;5075331;28;20211;-69
2023/08/13 00:55:53;;;;;;;11.00;2.70;;;16.50;99.90;;;;;;5058729;28;20676;-68
2023/08/13 00:58:19;;;;;;;7.07;2.30;;;16.40;99.90;;;;;;5067997;28;20226;-69
2023/08/13 01:00:46;;;;;;;6.88;2.50;;;16.40;99.90;;;;;;5077681;28;20199;-68
2023/08/13 01:03:15;;;;;;;6.20;2.20;;;16.40;99.90;;;;;;5068347;28;20215;-68
2023/08/13 01:05:48;;;;;;;9.88;2.58;;;16.30;99.90;;;;;;5069670;28;20199;-68
2023/08/13 01:08:21;;;;;;;6.95;2.22;;;16.30;99.90;;;;;;5065371;28;20759;-68
2023/08/13 01:10:54;;;;;;;4.30;2.45;;;16.30;99.90;;;;;;5054513;28;20223;-68
2023/08/13 01:13:26;;;;;;;3.83;2.47;;;16.10;99.90;;;;;;5070960;28;21329;-68
2023/08/13 01:15:57;;;;;;;7.95;2.35;;;16.10;99.90;;;;;;5071520;28;20199;-68
2023/08/13 01:18:25;;;;;;;8.57;2.50;;;16.10;99.90;;;;;;5070181;28;20772;-68
2023/08/13 01:20:52;;;;;;;6.13;2.78;;;16.00;99.90;;;;;;5069041;28;20199;-68
2023/08/13 01:23:20;;;;;;;5.03;2.40;;;16.10;99.90;;;;;;5073679;28;20258;-68
2023/08/13 01:25:53;;;;;;;9.52;2.60;;;16.00;99.90;;;;;;5078536;28;20200;-68
2023/08/13 01:28:27;;;;;;;9.75;2.58;;;15.90;99.90;;;;;;5051158;28;20199;-68
2023/08/13 01:30:58;;;;;;;8.65;2.80;;;16.00;99.90;;;;;;5063842;28;20448;-68
2023/08/13 01:33:31;;;;;;;4.88;2.28;;;15.90;99.90;;;;;;5064094;28;21086;-68
2023/08/13 01:36:01;;;;;;;5.53;2.30;;;16.10;99.90;;;;;;5068501;28;20206;-68
2023/08/13 01:38:30;;;;;;;11.13;2.80;;;16.10;99.90;;;;;;5074105;28;20622;-68
2023/08/13 01:40:57;;;;;;;7.13;2.50;;;16.00;99.90;;;;;;5066963;28;20230;-68
2023/08/13 01:43:24;;;;;;;8.85;2.58;;;16.00;99.90;;;;;;5063029;28;20411;-68
2023/08/13 01:45:51;;;;;;;9.02;2.38;;;16.10;99.90;;;;;;5056062;28;20200;-68
2023/08/13 01:48:18;;;;;;;19.63;3.55;;;16.00;99.90;;;;;;5062717;28;21242;-68
2023/08/13 01:50:45;;;;;;;7.43;3.17;;;16.00;99.90;;;;;;5069796;28;20573;-68
2023/08/13 01:53:11;;;;;;;6.93;2.15;;;16.10;99.90;;;;;;5065549;28;20226;-68
2023/08/13 01:55:40;;;;;;;4.65;2.70;;;16.10;99.90;;;;;;5074128;28;20430;-68
2023/08/13 01:58:07;;;;;;;7.57;2.70;;;16.00;99.90;;;;;;5048989;28;20208;-68
2023/08/13 02:00:34;;;;;;;7.05;2.83;;;16.00;99.90;;;;;;5074261;28;20241;-68
2023/08/13 02:03:01;;;;;;;7.38;2.20;;;16.00;99.90;;;;;;5066418;28;20688;-68
2023/08/13 02:05:28;;;;;;;6.53;2.25;;;16.00;99.90;;;;;;5065898;28;20713;-68
2023/08/13 02:07:54;;;;;;;11.65;2.78;;;16.00;99.90;;;;;;5054929;28;20202;-68
2023/08/13 02:10:21;;;;;;;10.68;2.95;;;16.00;99.90;;;;;;5074499;28;21008;-68
2023/08/13 02:12:49;;;;;;;9.73;2.30;;;16.00;99.90;;;;;;5050412;28;20685;-68
2023/08/13 02:15:16;;;;;;;4.00;2.28;;;16.00;99.90;;;;;;5077309;28;20231;-68
2023/08/13 02:17:43;;;;;;;8.98;2.20;;;15.90;99.90;;;;;;5069290;27;20235;-68
2023/08/13 02:20:11;;;;;;;12.70;2.38;;;15.90;99.90;;;;;;5066051;28;20883;-68
2023/08/13 02:22:38;;;;;;;11.20;2.33;;;15.70;99.90;;;;;;5080896;28;20196;-68
2023/08/13 02:25:05;;;;;;;6.70;2.40;;;15.70;99.90;;;;;;5069071;28;20230;-69
2023/08/13 02:27:32;;;;;;;4.18;2.20;;;15.70;99.90;;;;;;5067398;28;20687;-68
2023/08/13 02:30:00;;;;;;;4.53;2.20;;;15.70;99.90;;;;;;5059540;28;20212;-68
2023/08/13 02:32:27;;;;;;;6.50;2.60;;;15.60;99.90;;;;;;5069508;28;20200;-68
2023/08/13 02:34:54;;;;;;;8.48;2.55;;;15.60;99.90;;;;;;5084923;28;20188;-68
2023/08/13 02:37:20;;;;;;;5.72;2.67;;;15.60;99.90;;;;;;5069154;28;20322;-68
2023/08/13 02:39:47;;;;;;;9.65;2.70;;;15.60;99.90;;;;;;5072093;28;20702;-68
2023/08/13 02:42:14;;;;;;;4.03;2.58;;;15.60;99.90;;;;;;5070783;28;20435;-68
2023/08/13 02:44:41;;;;;;;8.90;3.15;;;15.60;99.90;;;;;;5057947;27;20255;-68
2023/08/13 02:47:09;;;;;;;6.40;2.20;;;15.40;99.90;;;;;;5068121;28;20196;-68
2023/08/13 02:49:35;;;;;;;6.72;2.47;;;15.90;99.90;;;;;;5083420;28;20575;-68
2023/08/13 02:52:03;;;;;;;5.20;2.15;;;15.70;99.90;;;;;;5071252;28;20199;-68
2023/08/13 02:54:29;;;;;;;3.75;2.35;;;15.70;99.90;;;;;;5082848;28;20734;-68
2023/08/13 02:56:56;;;;;;;5.38;2.10;;;15.80;99.90;;;;;;5066278;28;20550;-68
2023/08/13 02:59:23;;;;;;;6.45;2.67;;;15.90;99.90;;;;;;5078701;28;20422;-68
2023/08/13 03:01:50;;;;;;;6.57;2.72;;;16.00;99.90;;;;;;5059236;28;20314;-68
2023/08/13 03:04:18;;;;;;;7.00;2.75;;;16.00;99.90;;;;;;5069134;28;20431;-68
2023/08/13 03:06:44;;;;;;;11.05;3.60;;;16.10;99.90;;;;;;5084231;28;20210;-68
2023/08/13 03:09:20;;;;;;;6.90;2.45;;;16.20;99.90;;;;;;5070169;28;20775;-68
2023/08/13 03:11:46;;;;;;;13.15;3.63;;;16.20;99.90;;;;;;5067952;27;20228;-68
2023/08/13 03:14:13;;;;;;;5.85;2.38;;;16.30;99.90;;;;;;5081312;28;20219;-68
2023/08/13 03:16:40;;;;;;;5.45;2.55;;;16.30;99.90;;;;;;5049003;28;20203;-68
2023/08/13 03:19:07;;;;;;;3.88;2.25;;;16.30;99.90;;;;;;5069617;28;20207;-68
2023/08/13 03:21:35;;;;;;;9.40;2.60;;;16.40;99.90;;;;;;5081560;28;20211;-68
2023/08/13 03:24:02;;;;;;;6.10;2.53;;;16.40;99.90;;;;;;5073175;28;20227;-68
2023/08/13 03:26:29;;;;;;;5.28;2.58;;;17.60;99.90;;;;;;5069121;28;23386;-68
2023/08/13 03:28:55;;;;;;;6.70;2.22;;;16.40;99.90;;;;;;5079761;28;20200;-68
2023/08/13 03:31:22;;;;;;;6.07;2.35;;;16.40;99.90;;;;;;5054050;28;20234;-68
2023/08/13 03:33:49;;;;;;;9.75;2.72;;;16.50;99.90;;;;;;5062159;28;20207;-68
2023/08/13 03:36:16;;;;;;;6.88;2.28;;;16.40;99.90;;;;;;5076975;28;20514;-68
2023/08/13 03:38:44;;;;;;;5.75;2.40;;;16.40;99.90;;;;;;5079677;28;20202;-68
2023/08/13 03:41:11;;;;;;;6.90;2.40;;;16.40;99.90;;;;;;5068219;28;20231;-68
2023/08/13 03:43:38;;;;;;;4.15;2.33;;;16.40;99.90;;;;;;5068175;28;20216;-68
2023/08/13 03:46:04;;;;;;;6.78;2.60;;;16.40;99.90;;;;;;5061011;28;20192;-68
2023/08/13 03:48:31;;;;;;;9.00;2.28;;;16.40;99.90;;;;;;5065810;28;20203;-68
2023/08/13 03:50:58;;;;;;;7.82;2.35;;;16.40;99.90;;;;;;5078983;28;20191;-68
2023/08/13 03:53:26;;;;;;;4.22;2.40;;;16.40;99.90;;;;;;5078755;28;20399;-68
2023/08/13 03:55:54;;;;;;;5.50;2.20;;;16.40;99.90;;;;;;5074825;28;20310;-68
2023/08/13 03:58:21;;;;;;;9.98;2.53;;;16.40;99.90;;;;;;5066584;28;20544;-68
2023/08/13 04:00:47;;;;;;;7.78;2.33;;;16.40;99.90;;;;;;5077784;28;20195;-68
2023/08/13 04:03:14;;;;;;;7.45;2.35;;;16.40;99.90;;;;;;5054821;28;20581;-68
2023/08/13 04:05:41;;;;;;;14.48;3.25;;;16.40;99.90;;;;;;5072378;28;20327;-68
2023/08/13 04:08:08;;;;;;;4.60;2.13;;;16.40;99.90;;;;;;5080689;28;20206;-68
2023/08/13 04:10:35;;;;;;;10.52;2.58;;;16.40;99.90;;;;;;5079477;27;20242;-68
2023/08/13 04:13:03;;;;;;;12.57;3.03;;;16.40;99.90;;;;;;5058402;28;20231;-68
2023/08/13 04:15:30;;;;;;;9.70;2.95;;;16.40;99.90;;;;;;5081217;27;20206;-68
2023/08/13 04:17:57;;;;;;;7.68;2.35;;;16.40;99.90;;;;;;5052583;28;20203;-68
2023/08/13 04:20:24;;;;;;;6.60;2.67;;;16.40;99.90;;;;;;5067232;28;20594;-68
2023/08/13 04:22:50;;;;;;;7.38;2.10;;;16.40;99.90;;;;;;5078468;28;20199;-68
2023/08/13 04:25:17;;;;;;;4.50;2.45;;;16.40;99.90;;;;;;5073647;28;20215;-68
2023/08/13 04:27:44;;;;;;;4.25;2.45;;;16.40;99.90;;;;;;5069499;28;20206;-68
2023/08/13 04:30:12;;;;;;;7.15;2.55;;;16.40;99.90;;;;;;5065732;28;20303;-68
2023/08/13 04:32:40;;;;;;;8.98;3.00;;;16.30;99.90;;;;;;5059840;28;20212;-68
2023/08/13 04:35:07;;;;;;;8.98;2.83;;;16.30;99.90;;;;;;5074203;28;20298;-69
2023/08/13 04:37:34;;;;;;;9.60;3.40;;;16.30;99.90;;;;;;5073587;28;20204;-68
2023/08/13 04:40:00;;;;;;;5.28;2.55;;;16.30;99.90;;;;;;5078518;28;20207;-68
2023/08/13 04:42:28;;;;;;;6.72;2.92;;;16.30;99.90;;;;;;5071476;28;20328;-68
2023/08/13 04:44:54;;;;;;;9.25;3.53;;;16.30;99.90;;;;;;5069449;28;20223;-68
2023/08/13 04:47:22;;;;;;;7.95;2.95;;;16.30;99.90;;;;;;5054267;28;20992;-69
2023/08/13 04:49:49;;;;;;;6.55;2.80;;;16.30;99.90;;;;;;5083868;28;20779;-68
2023/08/13 04:52:16;;;;;;;7.57;2.83;;;16.30;99.90;;;;;;5065216;28;20213;-68
2023/08/13 04:54:43;;;;;;;7.75;3.17;;;16.20;99.90;;;;;;5079322;28;20711;-68
2023/08/13 04:57:10;;;;;;;5.78;3.28;;;16.30;99.90;;;;;;5077691;28;20669;-68
2023/08/13 04:59:37;;;;;;;6.57;3.00;;;16.30;99.90;;;;;;5051809;28;20200;-68
2023/08/13 05:02:04;;;;;;;4.90;2.88;;;16.30;99.90;;;;;;5083127;28;20202;-68
2023/08/13 05:04:32;;;;;;;10.65;3.35;;;16.20;99.90;;;;;;5050900;28;20719;-68
2023/08/13 05:06:59;;;;;;;8.48;3.42;;;16.30;99.90;;;;;;5069081;28;20219;-68
2023/08/13 05:09:25;;;;;;;5.90;3.42;;;16.30;99.90;;;;;;5078758;28;20192;-68
2023/08/13 05:11:52;;;;;;;6.65;2.90;;;16.40;99.90;;;;;;5081212;28;20199;-68
2023/08/13 05:14:20;;;;;;;8.27;3.63;;;16.40;99.90;;;;;;5066711;28;20223;-68
2023/08/13 05:16:46;;;;;;;7.05;3.80;;;16.40;99.90;;;;;;5069909;28;20217;-68
2023/08/13 05:19:13;;;;;;;7.50;3.17;;;16.40;99.90;;;;;;5045396;28;20237;-68
2023/08/13 05:21:41;;;;;;;8.25;3.88;;;16.40;99.90;;;;;;5078304;28;20864;-68
2023/08/13 05:24:08;;;;;;;11.35;3.30;;;16.20;99.90;;;;;;5071663;28;20227;-68
2023/08/13 05:26:35;;;;;;;9.32;3.85;;;16.40;99.90;;;;;;5070786;28;20590;-68
2023/08/13 05:29:03;;;;;;;10.98;3.55;;;16.50;99.90;;;;;;5073576;28;20199;-68
2023/08/13 05:31:30;;;;;;;8.98;3.35;;;16.50;99.90;;;;;;5049811;28;20251;-69
2023/08/13 05:33:57;;;;;;;9.60;3.35;;;16.60;99.90;;;;;;5053011;28;20222;-68
2023/08/13 05:36:24;;;;;;;7.18;3.75;;;16.60;99.90;;;;;;5071205;28;20286;-68
2023/08/13 05:38:52;;;;;;;9.40;3.80;;;16.70;99.90;;;;;;5060284;28;20385;-68
2023/08/13 05:41:19;;;;;;;10.82;3.58;;;16.60;99.90;;;;;;5058914;28;20925;-68
2023/08/13 05:43:46;;;;;;;10.13;3.78;;;16.70;99.90;;;;;;5079453;28;20195;-68
2023/08/13 05:46:13;;;;;;;9.85;3.47;;;16.90;99.90;;;;;;5048561;28;20224;-68
2023/08/13 05:48:39;;;;;;;6.70;2.78;;;16.80;99.90;;;;;;5043692;28;20204;-68
2023/08/13 05:51:06;;;;;;;10.18;3.75;;;16.80;99.90;;;;;;5071064;28;20211;-68
2023/08/13 05:53:33;;;;;;;8.82;3.47;;;16.90;99.90;;;;;;5080884;28;20193;-68
2023/08/13 05:56:01;;;;;;;8.43;3.63;;;16.90;99.90;;;;;;5064441;28;20204;-68
2023/08/13 05:58:28;;;;;;;5.95;3.47;;;16.90;99.90;;;;;;5072367;27;20561;-68
2023/08/13 06:00:54;;;;;;;8.90;3.33;;;17.00;99.90;;;;;;5073762;28;20196;-69
2023/08/13 06:03:21;;;;;;;6.80;3.25;;;16.90;99.90;;;;;;5047031;28;20484;-68
2023/08/13 06:05:49;;;;;;;12.07;3.72;;;17.00;99.90;;;;;;5047451;28;20227;-68
2023/08/13 06:08:16;;;;;;;8.80;3.90;;;17.00;99.90;;;;;;5077327;28;20223;-68
2023/08/13 06:10:43;;;;;;;10.68;3.60;;;17.00;99.90;;;;;;5059952;28;20203;-68
2023/08/13 06:13:11;;;;;;;11.52;3.65;;;17.10;99.90;;;;;;5084700;28;20644;-68
2023/08/13 06:15:38;;;;;;;10.15;3.53;;;17.10;99.90;;;;;;5072987;28;20561;-68
2023/08/13 06:18:05;;;;;;;12.00;3.78;;;17.20;99.90;;;;;;5054200;28;21283;-68
2023/08/13 06:20:32;;;;;;;9.82;3.40;;;17.20;99.90;;;;;;5051202;28;20215;-68
2023/08/13 06:22:59;;;;;;;6.53;3.33;;;17.20;99.90;;;;;;5077506;28;20475;-68
2023/08/13 06:25:26;;;;;;;11.57;3.97;;;17.20;99.90;;;;;;5070809;28;20273;-68
2023/08/13 06:27:52;;;;;;;9.23;3.58;;;17.20;99.90;;;;;;5061245;28;20400;-68
2023/08/13 06:30:21;;;;;;;11.20;3.78;;;17.30;99.90;;;;;;5063943;28;20196;-69
2023/08/13 06:32:47;;;;;;;7.75;3.40;;;17.40;99.90;;;;;;5062847;28;20202;-69
2023/08/13 06:35:15;;;;;;;9.05;3.83;;;17.40;99.90;;;;;;5039032;28;20215;-68
2023/08/13 06:37:42;;;;;;;8.65;3.80;;;17.40;99.90;;;;;;5071637;28;20200;-68
2023/08/13 06:40:10;;;;;;;8.40;3.97;;;17.40;99.90;;;;;;5076863;28;20243;-68
2023/08/13 06:42:37;;;;;;;9.05;3.53;;;17.50;99.90;;;;;;5063894;28;20211;-69
2023/08/13 06:45:04;;;;;;;13.70;3.47;;;17.50;99.90;;;;;;5072715;28;20334;-68
2023/08/13 06:47:32;;;;;;;9.75;3.70;;;17.50;99.90;;;;;;5064086;28;20752;-68
2023/08/13 06:49:59;;;;;;;7.63;3.38;;;17.60;99.90;;;;;;5060219;28;20340;-68
2023/08/13 06:52:27;;;;;;;10.13;3.40;;;17.60;99.90;;;;;;5050650;28;20223;-68
2023/08/13 06:54:53;;;;;;;6.72;3.00;;;17.60;99.90;;;;;;5074905;28;20462;-68
2023/08/13 06:57:20;;;;;;;7.15;2.83;;;17.60;99.90;;;;;;5062469;27;20207;-68
2023/08/13 06:59:47;;;;;;;12.38;3.42;;;17.60;99.90;;;;;;5077768;28;20439;-68
2023/08/13 07:02:14;;;;;;;8.27;3.45;;;17.70;99.90;;;;;;5062489;28;20196;-68
2023/08/13 07:04:42;;;;;;;7.95;3.60;;;17.70;99.90;;;;;;5068722;28;20219;-68
2023/08/13 07:07:09;;;;;;;15.50;3.25;;;17.70;99.90;;;;;;5047901;28;20208;-68
2023/08/13 07:09:35;;;;;;;9.05;3.67;;;17.80;99.90;;;;;;5072470;28;20781;-69
2023/08/13 07:12:02;;;;;;;6.85;3.22;;;17.80;99.90;;;;;;5079573;27;20934;-68
2023/08/13 07:14:29;;;;;;;7.03;3.42;;;17.80;99.90;;;;;;5069834;28;20192;-68
2023/08/13 07:16:56;;;;;;;13.93;3.03;;;17.90;99.90;;;;;;5078641;28;20201;-68
2023/08/13 07:19:22;;;;;;;7.63;3.22;;;18.00;99.90;;;;;;5073303;28;20230;-68
2023/08/13 07:21:51;;;;;;;8.73;3.63;;;17.90;99.90;;;;;;5068568;28;21297;-68
2023/08/13 07:24:17;;;;;;;9.27;3.13;;;18.00;99.90;;;;;;5050083;27;20621;-68
2023/08/13 07:26:44;;;;;;;7.97;3.17;;;18.00;99.90;;;;;;5080095;28;20340;-69
2023/08/13 07:29:12;;;;;;;8.98;3.30;;;18.00;99.90;;;;;;5069323;28;20219;-69
2023/08/13 07:31:39;;;;;;;8.18;3.40;;;17.90;99.90;;;;;;5083771;28;20219;-68
2023/08/13 07:34:06;;;;;;;7.30;3.10;;;18.10;99.90;;;;;;5074040;28;20215;-69
2023/08/13 07:36:33;;;;;;;12.13;4.10;;;18.10;99.90;;;;;;5064340;28;20240;-69
2023/08/13 07:39:02;;;;;;;8.23;3.33;;;18.10;99.90;;;;;;5052314;27;20225;-68
2023/08/13 07:41:28;;;;;;;9.38;3.00;;;18.10;99.90;;;;;;5076539;28;20234;-68
2023/08/13 07:43:55;;;;;;;8.88;3.03;;;18.20;99.90;;;;;;5071986;28;20200;-68
2023/08/13 07:46:22;;;;;;;7.63;3.15;;;18.10;99.90;;;;;;5083974;28;20227;-69
2023/08/13 07:48:49;;;;;;;8.77;3.28;;;18.20;99.90;;;;;;5075926;28;20192;-69
2023/08/13 07:51:16;;;;;;;7.65;2.90;;;18.10;99.90;;;;;;5067998;28;20312;-68
2023/08/13 07:53:43;;;;;;;6.85;3.40;;;18.10;99.90;;;;;;5081236;28;20203;-68
2023/08/13 07:56:11;;;;;;;10.07;2.97;;;18.10;99.90;;;;;;5055933;28;20314;-68
2023/08/13 07:58:39;;;;;;;9.43;3.75;;;18.20;99.90;;;;;;5074934;28;20295;-68
2023/08/13 08:01:06;;;;;;;6.78;3.35;;;18.20;99.90;;;;;;5077572;28;20206;-68
2023/08/13 08:03:32;;;;;;;8.75;3.28;;;18.40;99.90;;;;;;5059790;28;20226;-68
2023/08/13 08:05:59;;;;;;;7.10;3.10;;;18.40;99.90;;;;;;5068641;28;20224;-68
2023/08/13 08:08:26;;;;;;;11.70;3.42;;;18.40;99.90;;;;;;5055724;28;21191;-68
2023/08/13 08:10:53;;;;;;;6.82;2.72;;;18.40;99.90;;;;;;5053080;28;20203;-68
2023/08/13 08:13:21;;;;;;;6.78;3.03;;;18.40;99.90;;;;;;5066178;28;20321;-68
2023/08/13 08:15:48;;;;;;;6.03;2.72;;;18.50;99.90;;;;;;5072397;28;20210;-68
2023/08/13 08:18:14;;;;;;;9.00;2.50;;;18.50;99.90;;;;;;5074718;28;20226;-68
2023/08/13 08:20:41;;;;;;;7.72;2.95;;;18.50;99.90;;;;;;5068718;28;20192;-68
2023/08/13 08:23:08;;;;;;;7.68;2.90;;;19.80;99.90;;;;;;5052637;28;20202;-68
2023/08/13 08:25:35;;;;;;;7.47;2.88;;;18.70;99.90;;;;;;5035160;28;20258;-69
2023/08/13 08:28:02;;;;;;;9.07;2.88;;;18.70;99.90;;;;;;5066690;28;20250;-68
2023/08/13 08:30:30;;;;;;;6.78;2.92;;;18.70;99.90;;;;;;5071220;28;20706;-68
2023/08/13 08:32:56;;;;;;;6.15;3.15;;;18.70;99.90;;;;;;5082893;28;20225;-69
2023/08/13 08:35:23;;;;;;;7.75;2.72;;;18.70;99.90;;;;;;5069806;27;20240;-69
2023/08/13 08:37:50;;;;;;;11.68;3.08;;;20.70;99.90;;;;;;5059967;28;20200;-69
2023/08/13 08:40:17;;;;;;;8.32;2.97;;;18.80;99.90;;;;;;5054839;28;20988;-69
2023/08/13 08:42:45;;;;;;;7.85;2.78;;;18.70;99.90;;;;;;5069231;28;20222;-69
2023/08/13 08:45:12;;;;;;;8.98;2.45;;;18.80;99.90;;;;;;5072204;28;20699;-68
2023/08/13 08:47:42;;;;;;;4.68;2.10;;;19.50;99.90;;;;;;5078337;28;20204;-68
2023/08/13 08:50:12;;;;;;;6.50;2.47;;;18.90;99.90;;;;;;5081043;28;20214;-69
2023/08/13 08:52:40;;;;;;;8.57;2.17;;;19.00;99.90;;;;;;5060695;28;20204;-69
2023/08/13 08:55:07;;;;;;;9.20;2.55;;;19.10;99.90;;;;;;5066301;28;20797;-68
2023/08/13 08:57:35;;;;;;;10.98;2.97;;;19.20;99.90;;;;;;5048098;28;20214;-70
2023/08/13 09:00:02;;;;;;;7.90;2.80;;;19.20;99.90;;;;;;5055301;28;20333;-68
2023/08/13 09:02:30;;;;;;;7.05;2.42;;;19.20;99.90;;;;;;5061751;28;20224;-68
2023/08/13 09:04:58;;;;;;;5.13;2.20;;;19.20;99.90;;;;;;5074478;28;20215;-69
2023/08/13 09:07:29;;;;;;;11.10;2.88;;;19.20;99.90;;;;;;5059116;28;20238;-68
2023/08/13 09:09:56;;;;;;;6.38;2.53;;;19.30;99.90;;;;;;5042799;28;20223;-68
2023/08/13 09:12:23;;;;;;;5.30;2.22;;;19.30;99.90;;;;;;5048048;28;20243;-68
2023/08/13 09:14:54;;;;;;;6.70;2.53;;;19.30;99.90;;;;;;5053631;28;20229;-69
2023/08/13 09:17:24;;;;;;;6.30;2.70;;;19.40;99.90;;;;;;5059954;28;20211;-68
2023/08/13 09:19:51;;;;;;;6.95;2.70;;;19.40;99.90;;;;;;5071942;28;21500;-68
2023/08/13 09:22:19;;;;;;;9.20;2.30;;;19.40;99.90;;;;;;5062528;28;20223;-68
2023/08/13 09:24:46;;;;;;;10.27;2.42;;;19.40;99.90;;;;;;5032994;28;20241;-68
2023/08/13 09:27:14;;;;;;;5.22;1.92;;;19.50;99.90;;;;;;5042725;28;21378;-68
2023/08/13 09:29:42;;;;;;;5.82;2.13;;;19.60;99.90;;;;;;5047479;28;20230;-68
2023/08/13 09:32:09;;;;;;;4.72;2.17;;;18.00;99.90;;;;;;5053801;27;20221;-68
2023/08/13 09:34:35;;;;;;;7.22;2.45;;;19.60;99.90;;;;;;5078195;28;20219;-68
2023/08/13 09:37:02;;;;;;;5.90;2.05;;;19.60;99.90;;;;;;5031905;28;20230;-68
2023/08/13 09:39:32;;;;;;;6.72;2.05;;;19.70;99.90;;;;;;5036958;28;20225;-68
2023/08/13 09:42:00;;;;;;;4.60;1.92;;;19.80;99.90;;;;;;5015098;28;20729;-68
2023/08/13 09:44:29;;;;;;;7.03;2.75;;;19.80;99.90;;;;;;5056447;28;20327;-68
2023/08/13 09:47:00;;;;;;;6.25;2.42;;;19.80;99.90;;;;;;5062577;28;20321;-68
2023/08/13 09:49:30;;;;;;;4.40;2.28;;;19.90;99.90;;;;;;5046830;28;20224;-68
2023/08/13 09:52:00;;;;;;;9.75;2.80;;;20.00;99.90;;;;;;5069300;27;20230;-68
2023/08/13 09:54:32;;;;;;;5.97;2.22;;;20.50;99.90;;;;;;5058753;28;20365;-69
2023/08/13 09:57:03;;;;;;;6.03;2.67;;;20.10;99.90;;;;;;5071262;28;20196;-68
2023/08/13 09:59:33;;;;;;;6.38;2.05;;;20.40;99.90;;;;;;5036252;28;20582;-68
2023/08/13 10:02:00;;;;;;;10.13;2.42;;;20.40;99.90;;;;;;5064595;28;20223;-68
2023/08/13 10:04:27;;;;;;;4.82;1.80;;;20.30;99.90;;;;;;5054049;28;20211;-68
2023/08/13 10:06:55;;;;;;;5.25;2.40;;;20.30;99.90;;;;;;5079264;28;20235;-68
2023/08/13 10:09:23;;;;;;;6.85;1.90;;;20.40;99.90;;;;;;5063637;28;20192;-69
2023/08/13 10:11:50;;;;;;;4.60;1.92;;;20.50;99.90;;;;;;5064290;28;20223;-68
2023/08/13 10:14:19;;;;;;;3.95;1.67;;;20.50;99.90;;;;;;5052826;28;20219;-68
2023/08/13 10:16:46;;;;;;;3.97;1.85;;;20.50;99.90;;;;;;5060792;27;23718;-68
2023/08/13 10:19:14;;;;;;;4.68;2.03;;;20.60;99.90;;;;;;5061457;28;20230;-68
2023/08/13 10:21:41;;;;;;;4.90;1.73;;;20.80;99.90;;;;;;5075424;28;20653;-68
2023/08/13 10:24:12;;;;;;;3.92;1.95;;;20.70;99.90;;;;;;5070451;28;20227;-68
2023/08/13 10:26:42;;;;;;;3.33;1.80;;;20.70;99.90;;;;;;5051171;27;21568;-68
2023/08/13 10:29:16;;;;;;;5.78;2.10;;;20.70;99.90;;;;;;5045513;28;20228;-68
2023/08/13 10:31:49;;;;;;;7.15;1.88;;;20.90;99.90;;;;;;5054757;27;20207;-68
2023/08/13 10:34:18;;;;;;;3.88;1.52;;;21.00;99.90;;;;;;5053571;28;20321;-68
2023/08/13 10:36:52;;;;;;;6.50;1.50;;;21.10;99.90;;;;;;5060827;28;20226;-68
2023/08/13 10:39:37;;;;;;;3.00;1.52;;;21.00;99.90;;;;;;5068632;28;20629;-68
2023/08/13 10:42:05;;;;;;;5.63;1.58;;;21.00;99.90;;;;;;5040305;28;20364;-68
2023/08/13 10:44:40;;;;;;;3.75;1.38;;;20.90;99.90;;;;;;5052495;28;20309;-69
2023/08/13 10:47:08;;;;;;;4.70;1.60;;;20.90;99.90;;;;;;5076651;28;20246;-69
2023/08/13 10:49:37;;;;;;;4.18;1.60;;;20.90;99.90;;;;;;5042939;28;20223;-68
2023/08/13 10:52:04;;;;;;;5.60;1.70;;;21.10;99.90;;;;;;5072360;28;20228;-68
2023/08/13 10:54:31;;;;;;;5.55;1.52;;;;;;;;;;5073284;28;20240;-67
2023/08/13 10:56:59;;;;;;;4.53;1.50;;;21.20;99.90;;;;;;5062354;28;20246;-68
2023/08/13 10:59:33;;;;;;;4.82;1.60;;;21.00;99.90;;;;;;5048438;28;20207;-67
2023/08/13 11:02:20;;;;;;;5.38;2.33;;;21.10;99.90;;;;;;5038795;28;20227;-67
2023/08/13 11:04:47;;;;;;;3.50;1.67;;;21.00;99.90;;;;;;5039823;28;20777;-69
2023/08/13 11:07:15;;;;;;;7.72;1.60;;;21.10;99.90;;;;;;5054924;28;20277;-69
2023/08/13 11:09:43;;;;;;;4.18;1.33;;;21.20;99.90;;;;;;5072819;28;20239;-68
2023/08/13 11:12:10;;;;;;;5.60;1.65;;;21.20;99.90;;;;;;5060921;28;20235;-68
2023/08/13 11:14:38;;;;;;;4.03;1.55;;;21.20;99.90;;;;;;5053502;27;20222;-68
2023/08/13 11:17:05;;;;;;;4.05;1.50;;;21.30;99.90;;;;;;5054398;27;20223;-68
2023/08/13 11:19:34;;;;;;;4.13;1.60;;;21.30;99.90;;;;;;5049098;28;20200;-69
2023/08/13 11:22:02;;;;;;;2.38;1.38;;;21.20;99.90;;;;;;5069242;27;20748;-68
2023/08/13 11:24:31;;;;;;;4.60;1.10;;;21.40;99.90;;;;;;5055761;27;20203;-68
2023/08/13 11:26:58;;;;;;;2.28;1.33;;;21.40;99.90;;;;;;5064160;28;20231;-69
2023/08/13 11:29:25;;;;;;;4.30;1.20;;;21.40;99.90;;;;;;5048627;27;20211;-70
2023/08/13 11:31:52;;;;;;;3.17;1.23;;;21.40;99.90;;;;;;5082936;28;21332;-69
2023/08/13 11:34:18;;;;;;;4.93;1.30;;;21.50;99.90;;;;;;5079715;28;20669;-68
2023/08/13 11:36:50;;;;;;;2.72;1.25;;;21.60;99.90;;;;;;5065604;27;20449;-69
2023/08/13 11:39:18;;;;;;;2.95;1.17;;;21.50;99.90;;;;;;5063140;28;20225;-70
2023/08/13 11:41:46;;;;;;;3.05;1.02;;;21.50;99.90;;;;;;5068081;27;20242;-70
2023/08/13 11:44:16;;;;;;;1.35;1.00;;;23.10;99.90;;;;;;5054476;27;20645;-70
2023/08/13 11:47:00;;;;;;;3.13;1.33;;;21.60;99.90;;;;;;5075209;28;20223;-69
2023/08/13 11:49:27;;;;;;;2.95;1.30;;;;;;;;;;5079172;28;20962;-69
2023/08/13 11:51:58;;;;;;;3.88;1.23;;;21.50;99.90;;;;;;5061580;27;24434;-69
2023/08/13 11:54:25;;;;;;;1.55;1.00;;;21.50;99.90;;;;;;5058311;28;20207;-70
2023/08/13 11:56:54;;;;;;;2.20;0.88;;;21.70;99.90;;;;;;5056922;27;20236;-69
2023/08/13 11:59:29;;;;;;;3.28;1.02;;;21.80;99.90;;;;;;5055177;28;20226;-70
2023/08/13 12:01:57;;;;;;;4.30;1.30;;;22.00;99.90;;;;;;5038553;27;20243;-69
2023/08/13 12:04:24;;;;;;;1.75;1.05;;;22.20;99.90;;;;;;5068912;28;20223;-69
2023/08/13 12:06:52;;;;;;;4.53;1.23;;;21.90;99.90;;;;;;5079943;28;20231;-69
2023/08/13 12:09:21;;;;;;;1.83;1.15;;;21.50;99.90;;;;;;5048867;28;21697;-68
2023/08/13 12:11:48;;;;;;;1.92;1.17;;;21.80;99.90;;;;;;5067246;27;20326;-69
2023/08/13 12:14:14;;;;;;;4.13;1.00;;;21.70;99.90;;;;;;5060488;28;20203;-69
2023/08/13 12:16:41;;;;;;;3.83;1.27;;;21.60;99.90;;;;;;5040182;27;21031;-69
2023/08/13 12:19:08;;;;;;;2.53;1.17;;;21.60;99.90;;;;;;5077416;27;20247;-69
2023/08/13 12:21:36;;;;;;;1.13;1.00;;;21.60;99.90;;;;;;5072024;28;20223;-69
2023/08/13 12:24:04;;;;;;;2.92;1.05;;;21.60;99.90;;;;;;5059015;28;20223;-69
2023/08/13 12:26:33;;;;;;;2.47;1.10;;;21.80;99.90;;;;;;5045601;28;20652;-69
2023/08/13 12:29:02;;;;;;;2.03;1.10;;;21.60;99.90;;;;;;5057335;28;20230;-69
2023/08/13 12:31:30;;;;;;;1.75;1.13;;;21.50;99.90;;;;;;5073124;28;20282;-69
2023/08/13 12:33:56;;;;;;;1.00;0.90;;;21.50;99.90;;;;;;5059072;28;20248;-68
2023/08/13 12:36:23;;;;;;;2.00;1.10;;;21.40;99.90;;;;;;5078129;28;20219;-68
2023/08/13 12:38:50;;;;;;;2.63;0.98;;;21.40;99.90;;;;;;5061276;28;21790;-68
2023/08/13 12:41:17;;;;;;;2.20;1.05;;;21.40;99.90;;;;;;5062566;27;20228;-68
2023/08/13 12:43:47;;;;;;;1.55;0.85;;;22.20;99.90;;;;;;5040760;27;20220;-69
2023/08/13 12:46:14;;;;;;;5.95;0.90;;;21.30;99.90;;;;;;5066322;28;20231;-68
2023/08/13 12:48:41;;;;;;;6.82;1.17;;;21.30;99.90;;;;;;5031491;28;20227;-68